EmailTwitter


Observations de surface / France / LFBD (07510)

Régions: Québec | Canada | États-Unis | Europe | France | UK | Ailleurs
Station
Affichage
Infos & localisation pour LFBD (07510) | Aide pour décoder les METARs

Observations prises le 2018-08-17 à 01H30 UTC à BORDEAUX/MERIGNA, FR (LFBD)

Etat du ciel: partiellement nuageux.

Température: 19.0 Celsius

Point de rosée: 17.0 Celsius

Humidité relative: 88%

Indice Humidex: 24.

Vents: Nord-ouest à 7 km/h ou 4 noeuds.

Pression au niveau moyen de la mer: 101.80 kilopascals.

Visibilité horizontale: 6.21 milles terrestres ou 9.94 kilomètres.

Hauteur du plafond: 2195 mètres ( 7200 pieds ).

Observation METAR:

LFBD 170130Z AUTO 31004KT 280V340 9999 FEW014 BKN072 19/17 Q1018 NOSIG=